Time;durP1;ratioP1;P1;durP2;ratioP2;P2;SDS_P1;SDS_P2;PMS_P1;PMS_P2;Temp;Humidity;BMP_temperature;BMP_pressure;BME280_temperature;BME280_humidity;BME280_pressure;Samples;Min_cycle;Max_cycle;Signal;HPM_P1;HPM_P2
2021/07/09 00:01:31;;;;;;;6.38;5.63;;;;;;;;;;5011094;28;20226;-86
2021/07/09 00:03:59;;;;;;;5.88;5.28;;;;;;;;;;4991958;28;20200;-86
2021/07/09 00:06:26;;;;;;;6.35;5.40;;;;;;;;;;4997559;28;20675;-86
2021/07/09 00:08:53;;;;;;;6.57;5.97;;;;;;;;;;5011673;28;20211;-84
2021/07/09 00:11:21;;;;;;;6.82;5.25;;;;;;;;;;5011009;28;20226;-86
2021/07/09 00:13:50;;;;;;;5.85;5.00;;;;;;;;;;4992182;28;20191;-85
2021/07/09 00:16:19;;;;;;;7.18;6.53;;;;;;;;;;4991735;28;20597;-84
2021/07/09 00:18:48;;;;;;;8.27;5.93;;;;;;;;;;4991651;28;20180;-85
2021/07/09 00:21:16;;;;;;;6.35;5.75;;;;;;;;;;4991426;28;20226;-85
2021/07/09 00:23:45;;;;;;;6.43;5.65;;;;;;;;;;4991177;28;20232;-86
2021/07/09 00:26:13;;;;;;;7.45;6.75;;;;;;;;;;4991513;28;20180;-85
2021/07/09 00:28:41;;;;;;;7.50;6.68;;;;;;;;;;4991681;28;20222;-85
2021/07/09 00:31:09;;;;;;;7.70;6.90;;;;;;;;;;4991181;28;20239;-85
2021/07/09 00:33:37;;;;;;;6.90;6.20;;;;;;;;;;4991460;28;20581;-85
2021/07/09 00:36:05;;;;;;;8.35;7.53;;;;;;;;;;4991087;28;20573;-85
2021/07/09 00:38:32;;;;;;;7.40;6.75;;;;;;;;;;4991826;28;20215;-85
2021/07/09 00:41:00;;;;;;;9.45;8.45;;;;;;;;;;4991332;28;20192;-86
2021/07/09 00:43:27;;;;;;;9.32;8.23;;;;;;;;;;4997682;28;20202;-85
2021/07/09 00:45:55;;;;;;;10.05;9.15;;;;;;;;;;5011191;28;20188;-85
2021/07/09 00:48:28;;;;;;;9.77;8.88;;;;;;;;;;5010871;28;20187;-85
2021/07/09 00:50:58;;;;;;;10.68;9.65;;;;;;;;;;5010745;28;20680;-85
2021/07/09 00:53:25;;;;;;;12.75;9.73;;;;;;;;;;5010740;28;20650;-85
2021/07/09 00:55:53;;;;;;;10.15;9.13;;;;;;;;;;5010434;28;20191;-85
2021/07/09 00:58:21;;;;;;;9.23;8.43;;;;;;;;;;5010898;28;20207;-85
2021/07/09 01:00:49;;;;;;;11.30;10.20;;;;;;;;;;5010713;28;20210;-86
2021/07/09 01:03:17;;;;;;;9.57;8.68;;;;;;;;;;5011033;28;20669;-85
2021/07/09 01:05:46;;;;;;;9.02;8.23;;;;;;;;;;5010888;28;20597;-85
2021/07/09 01:08:14;;;;;;;10.35;9.40;;;;;;;;;;5010451;28;20187;-85
2021/07/09 01:10:43;;;;;;;10.50;9.57;;;;;;;;;;5010007;28;20215;-85
2021/07/09 01:13:11;;;;;;;11.63;9.77;;;;;;;;;;5010688;28;20191;-84
2021/07/09 01:15:38;;;;;;;11.45;10.35;;;;;;;;;;5010324;28;20564;-85
2021/07/09 01:18:06;;;;;;;10.95;9.85;;;;;;;;;;5010671;28;20190;-85
2021/07/09 01:20:33;;;;;;;10.32;9.35;;;;;;;;;;5011010;28;20734;-86
2021/07/09 01:23:03;;;;;;;12.00;10.80;;;;;;;;;;5044549;28;20235;-86
2021/07/09 01:25:32;;;;;;;10.73;9.77;;;;;;;;;;5113956;28;20622;-85
2021/07/09 01:28:04;;;;;;;8.93;8.13;;;;;;;;;;5113354;28;20180;-84
2021/07/09 01:30:32;;;;;;;11.00;9.90;;;;;;;;;;5113079;28;20595;-84
2021/07/09 01:33:00;;;;;;;8.98;8.18;;;;;;;;;;5113181;28;20238;-85
2021/07/09 01:35:29;;;;;;;9.10;8.35;;;;;;;;;;5113565;28;20180;-85
2021/07/09 01:38:10;;;;;;;10.75;9.25;;;;;;;;;;5113672;28;20650;-86
2021/07/09 01:40:41;;;;;;;11.60;9.93;;;;;;;;;;5113758;28;20191;-84
2021/07/09 01:43:18;;;;;;;11.30;10.13;;;;;;;;;;5113420;28;20180;-85
2021/07/09 01:45:59;;;;;;;10.25;9.27;;;;;;;;;;5113391;28;20548;-84
2021/07/09 01:48:29;;;;;;;10.07;9.20;;;;;;;;;;5113545;28;20187;-86
2021/07/09 01:51:06;;;;;;;10.75;9.73;;;;;;;;;;5113173;28;20223;-84
2021/07/09 01:53:36;;;;;;;11.73;10.63;;;;;;;;;;5113417;28;20203;-85
2021/07/09 01:56:05;;;;;;;16.27;11.93;;;;;;;;;;5095335;28;20196;-84
2021/07/09 01:58:40;;;;;;;11.80;10.60;;;;;;;;;;5092889;28;20230;-85
2021/07/09 02:01:08;;;;;;;12.38;11.38;;;;;;;;;;5093044;28;20220;-84
2021/07/09 02:03:38;;;;;;;13.30;12.02;;;;;;;;;;5093019;28;20208;-85
2021/07/09 02:06:09;;;;;;;15.52;14.02;;;;;;;;;;5093248;28;20191;-86
2021/07/09 02:08:38;;;;;;;15.00;13.38;;;;;;;;;;5092994;28;20195;-84
2021/07/09 02:11:08;;;;;;;12.95;11.75;;;;;;;;;;5092624;28;20224;-84
2021/07/09 02:13:37;;;;;;;14.35;13.15;;;;;;;;;;5092574;28;20200;-85
2021/07/09 02:16:11;;;;;;;12.35;11.27;;;;;;;;;;5093063;28;20195;-84
2021/07/09 02:18:39;;;;;;;13.70;12.50;;;;;;;;;;5092493;28;20211;-84
2021/07/09 02:21:07;;;;;;;13.13;11.93;;;;;;;;;;5092227;28;20220;-84
2021/07/09 02:23:34;;;;;;;13.70;12.52;;;;;;;;;;5034037;28;20228;-84
2021/07/09 02:26:10;;;;;;;14.75;13.40;;;;;;;;;;4990458;28;20685;-84
2021/07/09 02:28:38;;;;;;;14.55;13.15;;;;;;;;;;4990971;28;20211;-85
2021/07/09 02:31:11;;;;;;;15.02;13.52;;;;;;;;;;4990471;28;20232;-84
2021/07/09 02:33:39;;;;;;;15.48;13.57;;;;;;;;;;4990278;28;20219;-84
2021/07/09 02:36:07;;;;;;;14.50;13.18;;;;;;;;;;4990235;28;20220;-85
2021/07/09 02:38:36;;;;;;;14.48;13.18;;;;;;;;;;4990172;28;20204;-84
2021/07/09 02:41:11;;;;;;;14.00;12.68;;;;;;;;;;4990301;28;20227;-84
2021/07/09 02:43:41;;;;;;;23.88;14.00;;;;;;;;;;4990312;28;20198;-84
2021/07/09 02:46:08;;;;;;;15.73;14.30;;;;;;;;;;4989407;28;20203;-84
2021/07/09 02:48:43;;;;;;;14.20;12.80;;;;;;;;;;4990415;28;20207;-84
2021/07/09 02:51:12;;;;;;;11.05;10.02;;;;;;;;;;4989785;28;20231;-85
2021/07/09 02:53:42;;;;;;;15.18;13.75;;;;;;;;;;4990195;28;20562;-85
2021/07/09 02:56:16;;;;;;;13.57;12.18;;;;;;;;;;4989720;28;20184;-84
2021/07/09 02:58:49;;;;;;;15.15;13.52;;;;;;;;;;4992225;28;20203;-84
2021/07/09 03:01:18;;;;;;;16.38;14.10;;;;;;;;;;4992743;28;20220;-84
2021/07/09 03:03:50;;;;;;;15.25;13.82;;;;;;;;;;4992995;28;20180;-84
2021/07/09 03:06:23;;;;;;;19.98;15.65;;;;;;;;;;4993246;28;20192;-84
2021/07/09 03:08:56;;;;;;;15.30;13.90;;;;;;;;;;4993042;28;20651;-84
2021/07/09 03:11:29;;;;;;;13.95;12.55;;;;;;;;;;4992981;28;20224;-84
2021/07/09 03:14:06;;;;;;;15.57;14.15;;;;;;;;;;4993167;28;20208;-84
2021/07/09 03:16:34;;;;;;;17.17;13.55;;;;;;;;;;5007961;28;20192;-84
2021/07/09 03:19:09;;;;;;;16.77;15.07;;;;;;;;;;4992826;28;20181;-84
2021/07/09 03:21:38;;;;;;;14.80;13.35;;;;;;;;;;4992650;28;20245;-85
2021/07/09 03:24:07;;;;;;;14.23;12.70;;;;;;;;;;4992427;28;20224;-84
2021/07/09 03:26:36;;;;;;;14.98;13.48;;;;;;;;;;4992718;28;20204;-84
2021/07/09 03:29:05;;;;;;;14.77;13.27;;;;;;;;;;4992740;28;20199;-84
2021/07/09 03:31:34;;;;;;;17.33;13.25;;;;;;;;;;4992876;28;20748;-84
2021/07/09 03:34:01;;;;;;;15.98;14.38;;;;;;;;;;4992911;28;20203;-84
2021/07/09 03:36:31;;;;;;;14.93;13.43;;;;;;;;;;4992981;28;20184;-84
2021/07/09 03:39:01;;;;;;;15.57;14.07;;;;;;;;;;4992545;28;20200;-84
2021/07/09 03:41:30;;;;;;;13.25;12.00;;;;;;;;;;4992137;28;20223;-84
2021/07/09 03:44:02;;;;;;;14.60;13.25;;;;;;;;;;4992325;28;20184;-84
2021/07/09 03:46:32;;;;;;;14.88;13.35;;;;;;;;;;4992578;28;20188;-85
2021/07/09 03:49:01;;;;;;;15.82;14.23;;;;;;;;;;4992935;28;20560;-85
2021/07/09 03:51:28;;;;;;;14.45;12.77;;;;;;;;;;4992271;28;20580;-85
2021/07/09 03:53:56;;;;;;;16.27;14.73;;;;;;;;;;4992522;28;20192;-85
2021/07/09 03:56:33;;;;;;;14.40;13.05;;;;;;;;;;5006856;28;20279;-84
2021/07/09 03:59:02;;;;;;;14.98;13.63;;;;;;;;;;5012115;28;20199;-84
2021/07/09 04:01:31;;;;;;;14.32;13.07;;;;;;;;;;5012281;28;20227;-85
2021/07/09 04:03:59;;;;;;;11.98;10.95;;;;;;;;;;5012178;28;20207;-84
2021/07/09 04:06:29;;;;;;;13.57;12.27;;;;;;;;;;5012308;28;20191;-84
2021/07/09 04:08:58;;;;;;;12.90;11.75;;;;;;;;;;5011080;28;20187;-85
2021/07/09 04:11:28;;;;;;;14.35;12.85;;;;;;;;;;5011632;28;20231;-83
2021/07/09 04:14:52;;;;;;;14.68;13.27;;;;;;;;;;5011659;28;20211;-83
2021/07/09 04:18:00;;;;;;;13.18;11.88;;;;;;;;;;5011824;28;20191;-83
2021/07/09 04:21:13;;;;;;;13.50;12.10;;;;;;;;;;4991961;28;20580;-83
2021/07/09 04:23:40;;;;;;;14.30;12.85;;;;;;;;;;5021379;28;20233;-82
2021/07/09 04:26:21;;;;;;;12.02;10.82;;;;;;;;;;5094378;28;20219;-82
2021/07/09 04:28:54;;;;;;;12.27;11.18;;;;;;;;;;5094053;28;20181;-83
2021/07/09 04:31:49;;;;;;;12.80;10.45;;;;;;;;;;5094824;28;20224;-83
2021/07/09 04:35:00;;;;;;;11.48;10.43;;;;;;;;;;5094594;28;20185;-84
2021/07/09 04:37:46;;;;;;;13.95;12.55;;;;;;;;;;5094358;28;20185;-84
2021/07/09 04:40:17;;;;;;;13.82;12.40;;;;;;;;;;5094733;28;20204;-83
2021/07/09 04:42:46;;;;;;;12.43;11.15;;;;;;;;;;5094389;28;20216;-84
2021/07/09 04:45:16;;;;;;;12.30;11.25;;;;;;;;;;5093992;28;20188;-84
2021/07/09 04:47:54;;;;;;;12.73;11.52;;;;;;;;;;5094539;28;20188;-84
2021/07/09 04:50:22;;;;;;;12.40;11.20;;;;;;;;;;5094409;28;20180;-84
2021/07/09 04:52:50;;;;;;;12.65;11.50;;;;;;;;;;5096901;28;20228;-84
2021/07/09 04:55:34;;;;;;;13.15;11.60;;;;;;;;;;5093847;28;20209;-85
2021/07/09 04:58:03;;;;;;;11.38;10.35;;;;;;;;;;5094055;28;20200;-84
2021/07/09 05:00:31;;;;;;;12.40;10.85;;;;;;;;;;5094348;28;20189;-84
2021/07/09 05:03:16;;;;;;;12.43;11.43;;;;;;;;;;5093723;28;20212;-85
2021/07/09 05:06:01;;;;;;;10.90;9.90;;;;;;;;;;5094042;28;20189;-85
2021/07/09 05:09:07;;;;;;;12.32;11.10;;;;;;;;;;5093872;28;20204;-84
2021/07/09 05:11:43;;;;;;;11.90;11.00;;;;;;;;;;5093765;28;20595;-85
2021/07/09 05:14:17;;;;;;;13.27;12.07;;;;;;;;;;5093523;28;20230;-84
2021/07/09 05:17:00;;;;;;;14.32;12.82;;;;;;;;;;5093398;28;20191;-83
2021/07/09 05:19:52;;;;;;;12.80;11.60;;;;;;;;;;5093962;28;20199;-84
2021/07/09 05:22:24;;;;;;;14.30;12.93;;;;;;;;;;5093471;28;20266;-85
2021/07/09 05:25:07;;;;;;;12.10;11.00;;;;;;;;;;5095526;28;20235;-84
2021/07/09 05:27:41;;;;;;;18.02;14.05;;;;;;;;;;5113208;28;20199;-84
2021/07/09 05:30:13;;;;;;;17.58;15.70;;;;;;;;;;5113857;28;20193;-84
2021/07/09 05:32:44;;;;;;;15.35;13.80;;;;;;;;;;5113583;28;20226;-84
2021/07/09 05:35:15;;;;;;;17.00;14.65;;;;;;;;;;5113630;28;20184;-83
2021/07/09 05:37:44;;;;;;;16.20;14.48;;;;;;;;;;5113175;28;20554;-85
2021/07/09 05:40:14;;;;;;;14.85;12.73;;;;;;;;;;5113608;28;20184;-83
2021/07/09 05:42:42;;;;;;;18.10;14.50;;;;;;;;;;5113178;28;20713;-83
2021/07/09 05:45:10;;;;;;;15.15;13.65;;;;;;;;;;5113473;28;20176;-83
2021/07/09 05:47:40;;;;;;;14.32;12.88;;;;;;;;;;5113462;28;20554;-83
2021/07/09 05:50:10;;;;;;;15.45;13.63;;;;;;;;;;5113606;28;20187;-82
2021/07/09 05:52:45;;;;;;;14.88;13.25;;;;;;;;;;5113372;28;20223;-82
2021/07/09 05:55:15;;;;;;;17.95;16.05;;;;;;;;;;5113111;28;20210;-83
2021/07/09 05:57:44;;;;;;;14.70;13.20;;;;;;;;;;5095441;28;20200;-82
2021/07/09 06:00:14;;;;;;;16.00;14.32;;;;;;;;;;5093393;28;20189;-84
2021/07/09 06:03:03;;;;;;;14.95;13.40;;;;;;;;;;5093710;28;20216;-84
2021/07/09 06:05:36;;;;;;;15.80;14.10;;;;;;;;;;5093520;28;20184;-82
2021/07/09 06:08:09;;;;;;;19.40;16.58;;;;;;;;;;5093663;28;20554;-82
2021/07/09 06:10:44;;;;;;;19.25;16.15;;;;;;;;;;5093981;28;20188;-82
2021/07/09 06:13:21;;;;;;;17.05;15.02;;;;;;;;;;5093686;28;20215;-84
2021/07/09 06:16:29;;;;;;;15.57;14.02;;;;;;;;;;5093507;28;20200;-82
2021/07/09 06:18:57;;;;;;;17.35;15.65;;;;;;;;;;5093581;28;20191;-83
2021/07/09 06:21:27;;;;;;;17.98;16.08;;;;;;;;;;5093000;28;20220;-85
2021/07/09 06:23:56;;;;;;;17.75;15.88;;;;;;;;;;5051980;28;20242;-89
2021/07/09 06:26:25;;;;;;;20.23;17.83;;;;;;;;;;5009844;28;20203;-83
2021/07/09 06:29:15;;;;;;;16.05;14.35;;;;;;;;;;5010273;28;20560;-83
2021/07/09 06:31:45;;;;;;;20.00;15.27;;;;;;;;;;5011432;28;20223;-82
2021/07/09 06:34:28;;;;;;;14.88;13.38;;;;;;;;;;5013586;28;20207;-84
2021/07/09 06:36:56;;;;;;;18.17;16.13;;;;;;;;;;5014049;28;20195;-84
2021/07/09 06:39:25;;;;;;;18.52;16.73;;;;;;;;;;5013800;28;20206;-82
2021/07/09 06:42:01;;;;;;;15.57;14.05;;;;;;;;;;5013638;28;20223;-83
2021/07/09 06:44:35;;;;;;;17.10;15.30;;;;;;;;;;5013488;28;20201;-82
2021/07/09 06:47:04;;;;;;;15.55;14.15;;;;;;;;;;5013512;28;20207;-83
2021/07/09 06:49:33;;;;;;;14.60;13.20;;;;;;;;;;4996042;28;20194;-83
2021/07/09 06:52:12;;;;;;;16.83;15.07;;;;;;;;;;4994125;28;20231;-84
2021/07/09 06:54:41;;;;;;;20.67;15.98;;;;;;;;;;4997697;28;20219;-82
2021/07/09 06:57:11;;;;;;;16.83;15.05;;;;;;;;;;5013428;28;20677;-83
2021/07/09 06:59:42;;;;;;;16.25;14.02;;;;;;;;;;5013294;28;20565;-82
2021/07/09 07:02:11;;;;;;;16.02;14.43;;;;;;;;;;5013557;28;20773;-82
2021/07/09 07:04:40;;;;;;;15.80;14.23;;;;;;;;;;5013405;28;20556;-85
2021/07/09 07:07:14;;;;;;;15.65;14.10;;;;;;;;;;5013481;28;20211;-83
2021/07/09 07:09:57;;;;;;;17.15;15.45;;;;;;;;;;5013639;28;20213;-83
2021/07/09 07:12:31;;;;;;;17.27;14.35;;;;;;;;;;5013294;28;20234;-83
2021/07/09 07:15:10;;;;;;;17.33;15.50;;;;;;;;;;5013635;28;20223;-84
2021/07/09 07:17:40;;;;;;;17.13;15.43;;;;;;;;;;5003157;28;20187;-84
2021/07/09 07:20:15;;;;;;;14.48;13.00;;;;;;;;;;4993363;28;20204;-84
2021/07/09 07:22:42;;;;;;;18.08;16.27;;;;;;;;;;4993990;28;20222;-83
2021/07/09 07:25:12;;;;;;;16.75;15.15;;;;;;;;;;4997253;28;20232;-84
2021/07/09 07:27:41;;;;;;;15.18;13.68;;;;;;;;;;5013228;28;20183;-82
2021/07/09 07:30:10;;;;;;;15.93;14.23;;;;;;;;;;5013533;28;20227;-85
2021/07/09 07:32:46;;;;;;;16.88;15.15;;;;;;;;;;5013132;28;20223;-84
2021/07/09 07:35:15;;;;;;;15.65;14.15;;;;;;;;;;5012996;28;20219;-83
2021/07/09 07:37:42;;;;;;;16.27;13.25;;;;;;;;;;5013394;28;20179;-84
2021/07/09 07:40:11;;;;;;;17.13;15.10;;;;;;;;;;5013564;28;20196;-84
2021/07/09 07:42:40;;;;;;;15.10;13.50;;;;;;;;;;5012736;28;20238;-84
2021/07/09 07:45:09;;;;;;;16.23;14.50;;;;;;;;;;5012775;28;20199;-84
2021/07/09 07:47:37;;;;;;;15.75;14.15;;;;;;;;;;5013229;28;20195;-83
2021/07/09 07:50:06;;;;;;;13.00;11.48;;;;;;;;;;5013520;28;20203;-83
2021/07/09 07:52:35;;;;;;;16.67;14.88;;;;;;;;;;5012789;28;20284;-84
2021/07/09 07:55:05;;;;;;;15.20;11.80;;;;;;;;;;5013129;28;20212;-84
2021/07/09 07:57:36;;;;;;;15.88;14.30;;;;;;;;;;5003193;28;20200;-84
2021/07/09 08:00:04;;;;;;;14.57;12.55;;;;;;;;;;4993886;28;20203;-82
2021/07/09 08:02:40;;;;;;;14.43;12.88;;;;;;;;;;4993198;28;20228;-83
2021/07/09 08:05:10;;;;;;;14.85;13.25;;;;;;;;;;4993526;28;20188;-84
2021/07/09 08:07:47;;;;;;;13.65;12.23;;;;;;;;;;4993201;28;20198;-82
2021/07/09 08:10:14;;;;;;;13.80;11.65;;;;;;;;;;4993293;28;20195;-84
2021/07/09 08:12:44;;;;;;;14.05;12.65;;;;;;;;;;4993523;28;20224;-84
2021/07/09 08:15:14;;;;;;;13.48;12.07;;;;;;;;;;4993117;28;20585;-85
2021/07/09 08:17:42;;;;;;;13.70;12.30;;;;;;;;;;4994876;28;20202;-84
2021/07/09 08:20:12;;;;;;;13.95;11.80;;;;;;;;;;4993098;28;20670;-84
2021/07/09 08:22:39;;;;;;;12.65;10.50;;;;;;;;;;4992999;28;20597;-83
2021/07/09 08:25:09;;;;;;;14.45;12.30;;;;;;;;;;4992458;28;20232;-84
2021/07/09 08:27:40;;;;;;;12.48;11.25;;;;;;;;;;4992850;28;20200;-84
2021/07/09 08:30:10;;;;;;;11.50;10.40;;;;;;;;;;4992888;28;20189;-83
2021/07/09 08:32:41;;;;;;;12.85;11.55;;;;;;;;;;4992326;28;20600;-82
2021/07/09 08:35:09;;;;;;;12.25;11.05;;;;;;;;;;4992492;28;20218;-83
2021/07/09 08:37:37;;;;;;;13.65;11.98;;;;;;;;;;4998437;28;20187;-84
2021/07/09 08:40:06;;;;;;;10.60;9.60;;;;;;;;;;5011958;28;20192;-85
2021/07/09 08:42:40;;;;;;;8.05;7.20;;;;;;;;;;5011950;28;20717;-83
2021/07/09 08:45:11;;;;;;;10.82;9.73;;;;;;;;;;5011954;28;20684;-83
2021/07/09 08:47:46;;;;;;;12.30;10.63;;;;;;;;;;5012110;28;20179;-85
2021/07/09 08:50:14;;;;;;;11.30;10.20;;;;;;;;;;5004739;28;20569;-83
2021/07/09 08:52:44;;;;;;;12.07;10.70;;;;;;;;;;5013071;28;20230;-85
2021/07/09 08:55:14;;;;;;;11.80;10.65;;;;;;;;;;5011284;28;20719;-84
2021/07/09 08:57:46;;;;;;;10.02;9.07;;;;;;;;;;4996276;28;20196;-86
2021/07/09 09:00:46;;;;;;;11.25;10.15;;;;;;;;;;5009565;28;20195;-84
2021/07/09 09:03:18;;;;;;;13.13;9.38;;;;;;;;;;5012993;28;20191;-84
2021/07/09 09:05:46;;;;;;;9.45;8.55;;;;;;;;;;5013201;28;20194;-84
2021/07/09 09:08:16;;;;;;;11.10;9.68;;;;;;;;;;5012227;28;20684;-84
2021/07/09 09:10:46;;;;;;;10.32;9.40;;;;;;;;;;5012512;28;20187;-84
2021/07/09 09:13:24;;;;;;;11.20;10.10;;;;;;;;;;4992733;28;20214;-84
2021/07/09 09:16:04;;;;;;;10.75;9.65;;;;;;;;;;4992418;28;20204;-84
2021/07/09 09:18:33;;;;;;;9.82;8.82;;;;;;;;;;4993177;28;20293;-84
2021/07/09 09:21:05;;;;;;;10.75;8.98;;;;;;;;;;4992971;28;20555;-84
2021/07/09 09:23:35;;;;;;;12.40;9.32;;;;;;;;;;5002100;28;20187;-84
2021/07/09 09:26:05;;;;;;;12.63;9.95;;;;;;;;;;5095037;28;20610;-84
2021/07/09 09:28:38;;;;;;;9.52;8.63;;;;;;;;;;5095237;28;20200;-84
2021/07/09 09:31:07;;;;;;;10.15;9.15;;;;;;;;;;5103760;28;20219;-84
2021/07/09 09:33:37;;;;;;;10.23;9.32;;;;;;;;;;5110311;28;20179;-84
2021/07/09 09:36:10;;;;;;;11.05;10.00;;;;;;;;;;5115428;28;20224;-84
2021/07/09 09:38:43;;;;;;;14.55;11.48;;;;;;;;;;5115141;28;20191;-84
2021/07/09 09:41:19;;;;;;;9.68;8.75;;;;;;;;;;5115065;28;20207;-84
2021/07/09 09:43:49;;;;;;;8.20;7.40;;;;;;;;;;5114961;28;20555;-84
2021/07/09 09:46:26;;;;;;;9.48;8.63;;;;;;;;;;5114672;28;20207;-84
2021/07/09 09:48:55;;;;;;;11.23;10.07;;;;;;;;;;5114522;28;20188;-85
2021/07/09 09:51:33;;;;;;;11.43;10.43;;;;;;;;;;5114547;28;20223;-85
2021/07/09 09:54:04;;;;;;;10.65;9.70;;;;;;;;;;5115094;28;20283;-85
2021/07/09 09:56:35;;;;;;;11.25;10.25;;;;;;;;;;5110887;28;20612;-84
2021/07/09 09:59:21;;;;;;;11.68;10.48;;;;;;;;;;5102401;28;20196;-83
2021/07/09 10:01:54;;;;;;;12.80;11.02;;;;;;;;;;5110797;28;20274;-83
2021/07/09 10:04:26;;;;;;;11.95;10.63;;;;;;;;;;5109905;28;20196;-84
2021/07/09 10:07:00;;;;;;;11.60;10.15;;;;;;;;;;5104799;28;20187;-83
2021/07/09 10:09:30;;;;;;;11.90;10.75;;;;;;;;;;5124062;28;20191;-84
2021/07/09 10:12:03;;;;;;;10.73;9.70;;;;;;;;;;5121005;28;20211;-84
2021/07/09 10:14:34;;;;;;;10.52;9.48;;;;;;;;;;5126152;28;20215;-84
2021/07/09 10:17:10;;;;;;;10.27;9.35;;;;;;;;;;5125999;28;20207;-83
2021/07/09 10:19:55;;;;;;;9.23;8.32;;;;;;;;;;5117479;28;20180;-84
2021/07/09 10:22:30;;;;;;;11.68;10.68;;;;;;;;;;5117166;28;20223;-84
2021/07/09 10:24:59;;;;;;;11.80;10.60;;;;;;;;;;5116693;28;20237;-85
2021/07/09 10:27:28;;;;;;;11.32;10.20;;;;;;;;;;5116759;28;20192;-84
2021/07/09 10:30:05;;;;;;;11.07;10.07;;;;;;;;;;5116886;28;20184;-83
2021/07/09 10:32:46;;;;;;;11.90;10.75;;;;;;;;;;5116769;28;20234;-84
2021/07/09 10:35:35;;;;;;;11.27;10.27;;;;;;;;;;5110742;28;20212;-84
2021/07/09 10:38:14;;;;;;;10.90;9.88;;;;;;;;;;5096104;28;20245;-85
2021/07/09 10:40:42;;;;;;;11.35;10.25;;;;;;;;;;5113128;28;20196;-85
2021/07/09 10:43:12;;;;;;;11.25;10.25;;;;;;;;;;5116640;28;20176;-85
2021/07/09 10:45:41;;;;;;;11.30;10.30;;;;;;;;;;5116495;28;20194;-84
2021/07/09 10:48:11;;;;;;;11.18;10.18;;;;;;;;;;5116513;28;20552;-84
2021/07/09 10:50:49;;;;;;;12.77;11.57;;;;;;;;;;5116113;28;20207;-84
2021/07/09 10:53:26;;;;;;;11.13;10.13;;;;;;;;;;5116025;28;20176;-84
2021/07/09 10:55:59;;;;;;;10.73;9.82;;;;;;;;;;5115914;28;20258;-86
2021/07/09 10:58:46;;;;;;;10.60;9.50;;;;;;;;;;5115989;28;20198;-84
2021/07/09 11:01:23;;;;;;;8.50;7.80;;;;;;;;;;5116010;28;20231;-84
2021/07/09 11:04:11;;;;;;;13.05;10.82;;;;;;;;;;5115807;28;20198;-85
2021/07/09 11:06:43;;;;;;;12.63;10.35;;;;;;;;;;5116107;28;20238;-83
2021/07/09 11:09:12;;;;;;;13.77;9.90;;;;;;;;;;5116097;28;20219;-84
2021/07/09 11:11:47;;;;;;;10.50;9.60;;;;;;;;;;5116021;28;20226;-84
2021/07/09 11:14:17;;;;;;;9.50;8.80;;;;;;;;;;5115907;28;20271;-85
2021/07/09 11:16:47;;;;;;;10.55;9.55;;;;;;;;;;5116037;28;20596;-84
2021/07/09 11:19:19;;;;;;;8.73;8.02;;;;;;;;;;5115321;28;20184;-83
2021/07/09 11:21:52;;;;;;;9.85;8.98;;;;;;;;;;5115821;28;20409;-84
2021/07/09 11:24:23;;;;;;;8.57;7.78;;;;;;;;;;5115327;28;20270;-85
2021/07/09 11:26:53;;;;;;;9.60;8.80;;;;;;;;;;5115486;28;20198;-85
2021/07/09 11:29:29;;;;;;;10.57;9.73;;;;;;;;;;5099390;28;20192;-84
2021/07/09 11:31:59;;;;;;;8.82;7.93;;;;;;;;;;5095224;28;20238;-86
2021/07/09 11:34:31;;;;;;;8.30;7.60;;;;;;;;;;5094940;28;20205;-85
2021/07/09 11:37:01;;;;;;;10.13;9.23;;;;;;;;;;5095006;28;20208;-84
2021/07/09 11:39:32;;;;;;;8.55;7.75;;;;;;;;;;5095233;28;20191;-84
2021/07/09 11:42:06;;;;;;;7.93;7.22;;;;;;;;;;5094884;28;20216;-84
2021/07/09 11:44:43;;;;;;;6.55;5.95;;;;;;;;;;5094912;28;20341;-85
2021/07/09 11:47:13;;;;;;;6.18;5.68;;;;;;;;;;5105628;28;20199;-84
2021/07/09 11:49:47;;;;;;;6.75;6.15;;;;;;;;;;5114790;28;20191;-86
2021/07/09 11:52:19;;;;;;;5.85;5.40;;;;;;;;;;5114495;28;20242;-84
2021/07/09 11:54:47;;;;;;;4.47;4.13;;;;;;;;;;5111787;28;20275;-84
2021/07/09 11:57:17;;;;;;;5.70;5.20;;;;;;;;;;5104842;28;20664;-84
2021/07/09 11:59:48;;;;;;;4.70;4.40;;;;;;;;;;5115128;28;20192;-84
2021/07/09 12:02:18;;;;;;;6.38;5.88;;;;;;;;;;5115042;28;20222;-85
2021/07/09 12:04:51;;;;;;;7.55;6.60;;;;;;;;;;5114957;28;20557;-85
2021/07/09 12:07:34;;;;;;;7.35;6.65;;;;;;;;;;5114833;28;20182;-84
2021/07/09 12:10:07;;;;;;;6.95;6.40;;;;;;;;;;5115014;28;20184;-84
2021/07/09 12:12:39;;;;;;;7.13;6.43;;;;;;;;;;5111403;28;20602;-84
2021/07/09 12:15:13;;;;;;;6.38;5.78;;;;;;;;;;5094120;28;20287;-83
2021/07/09 12:17:43;;;;;;;6.55;5.93;;;;;;;;;;5093939;28;20220;-86
2021/07/09 12:20:21;;;;;;;8.52;6.45;;;;;;;;;;5093830;28;20176;-86
2021/07/09 12:22:53;;;;;;;6.68;6.07;;;;;;;;;;5113725;28;20599;-84
2021/07/09 12:25:23;;;;;;;7.20;6.55;;;;;;;;;;5114684;28;20242;-83
2021/07/09 12:27:53;;;;;;;6.20;5.70;;;;;;;;;;5115592;28;20191;-83
2021/07/09 12:30:24;;;;;;;7.10;5.80;;;;;;;;;;5113136;28;20204;-84
2021/07/09 12:32:55;;;;;;;5.88;5.38;;;;;;;;;;5113651;28;20220;-83
2021/07/09 12:35:27;;;;;;;5.25;4.85;;;;;;;;;;5114498;28;20187;-83
2021/07/09 12:38:02;;;;;;;5.30;4.50;;;;;;;;;;5114183;28;20585;-84
2021/07/09 12:40:33;;;;;;;4.97;4.57;;;;;;;;;;5114398;28;20693;-82
2021/07/09 12:43:17;;;;;;;4.82;4.10;;;;;;;;;;5114097;28;20223;-84
2021/07/09 12:45:49;;;;;;;4.07;3.78;;;;;;;;;;5114286;28;20207;-83
2021/07/09 12:48:33;;;;;;;4.90;4.47;;;;;;;;;;5113589;28;20202;-83
2021/07/09 12:51:18;;;;;;;4.32;4.03;;;;;;;;;;5125868;27;20300;-83
2021/07/09 12:53:54;;;;;;;5.00;4.60;;;;;;;;;;5090114;28;20177;-82
2021/07/09 12:56:23;;;;;;;4.20;3.58;;;;;;;;;;5090126;28;20176;-81
2021/07/09 12:58:59;;;;;;;3.88;3.58;;;;;;;;;;5090155;28;20200;-83
2021/07/09 13:01:26;;;;;;;3.83;3.53;;;;;;;;;;5090468;28;20223;-83
2021/07/09 13:03:54;;;;;;;3.45;3.22;;;;;;;;;;5090219;28;20195;-81
2021/07/09 13:06:29;;;;;;;4.78;3.60;;;;;;;;;;5090445;28;20546;-81
2021/07/09 13:09:13;;;;;;;3.70;3.40;;;;;;;;;;5089748;28;20211;-82
2021/07/09 13:11:43;;;;;;;3.97;3.65;;;;;;;;;;5089810;28;20212;-82
2021/07/09 13:14:19;;;;;;;4.28;3.85;;;;;;;;;;5089640;28;20203;-81
2021/07/09 13:16:49;;;;;;;3.95;3.65;;;;;;;;;;5089750;28;20265;-82
2021/07/09 13:19:30;;;;;;;3.70;3.40;;;;;;;;;;5089566;28;20188;-82
2021/07/09 13:21:59;;;;;;;3.70;3.40;;;;;;;;;;5089517;28;20215;-81
2021/07/09 13:24:34;;;;;;;2.78;2.60;;;;;;;;;;5089750;28;20204;-82
2021/07/09 13:27:14;;;;;;;3.60;3.30;;;;;;;;;;5089390;28;20203;-82
2021/07/09 13:29:42;;;;;;;3.78;3.33;;;;;;;;;;5089279;28;20227;-82
2021/07/09 13:32:10;;;;;;;3.38;3.08;;;;;;;;;;5089128;28;20220;-82
2021/07/09 13:34:38;;;;;;;3.15;2.95;;;;;;;;;;5089686;28;20187;-82
2021/07/09 13:37:15;;;;;;;2.92;2.72;;;;;;;;;;5088860;28;20211;-82
2021/07/09 13:39:42;;;;;;;2.90;2.70;;;;;;;;;;5088824;28;20671;-82
2021/07/09 13:42:10;;;;;;;5.22;3.22;;;;;;;;;;5088189;28;20263;-83
2021/07/09 13:44:37;;;;;;;2.60;2.42;;;;;;;;;;5088575;28;20208;-82
2021/07/09 13:47:05;;;;;;;3.35;2.78;;;;;;;;;;5088968;28;20188;-83
2021/07/09 13:49:32;;;;;;;3.58;3.28;;;;;;;;;;5089966;28;20239;-82
2021/07/09 13:52:01;;;;;;;2.97;2.78;;;;;;;;;;5094912;28;20211;-82
2021/07/09 13:54:31;;;;;;;3.58;3.28;;;;;;;;;;5102087;28;20227;-83
2021/07/09 13:56:59;;;;;;;3.67;3.38;;;;;;;;;;5099401;28;20188;-84
2021/07/09 13:59:26;;;;;;;2.72;2.47;;;;;;;;;;5098675;28;20189;-82
2021/07/09 14:01:54;;;;;;;3.50;3.20;;;;;;;;;;5078205;28;20224;-83
2021/07/09 14:04:21;;;;;;;3.53;3.22;;;;;;;;;;5078808;28;20201;-82
2021/07/09 14:06:49;;;;;;;2.83;2.63;;;;;;;;;;5074689;28;20223;-82
2021/07/09 14:09:16;;;;;;;3.25;2.95;;;;;;;;;;5075425;28;20185;-82
2021/07/09 14:11:45;;;;;;;3.28;3.08;;;;;;;;;;5074096;28;20222;-83
2021/07/09 14:14:16;;;;;;;2.92;2.45;;;;;;;;;;5075206;28;20189;-85
2021/07/09 14:16:45;;;;;;;3.08;2.88;;;;;;;;;;5074927;28;20201;-83
2021/07/09 14:19:12;;;;;;;2.85;2.70;;;;;;;;;;5075225;28;20190;-83
2021/07/09 14:21:40;;;;;;;9.95;3.55;;;;;;;;;;5063438;28;20223;-84
2021/07/09 14:24:07;;;;;;;2.70;2.50;;;;;;;;;;5069866;28;20268;-83
2021/07/09 14:26:35;;;;;;;3.72;2.80;;;;;;;;;;5076744;28;20205;-82
2021/07/09 14:29:04;;;;;;;3.20;2.90;;;;;;;;;;5074623;28;20186;-83
2021/07/09 14:31:33;;;;;;;2.70;2.50;;;;;;;;;;5074535;28;20228;-82
2021/07/09 14:34:01;;;;;;;3.13;2.83;;;;;;;;;;5090282;28;20205;-82
2021/07/09 14:36:28;;;;;;;2.50;2.33;;;;;;;;;;5091858;28;20276;-83
2021/07/09 14:38:56;;;;;;;2.60;2.40;;;;;;;;;;5074490;28;20664;-83
2021/07/09 14:41:23;;;;;;;2.38;2.20;;;;;;;;;;5074320;28;20216;-83
2021/07/09 14:43:51;;;;;;;3.25;2.60;;;;;;;;;;5074881;28;20551;-82
2021/07/09 14:46:20;;;;;;;3.10;2.80;;;;;;;;;;5074182;28;20584;-82
2021/07/09 14:48:47;;;;;;;2.85;2.65;;;;;;;;;;5079075;28;20196;-83
2021/07/09 14:51:15;;;;;;;3.05;2.85;;;;;;;;;;5079081;28;20221;-84
2021/07/09 14:53:43;;;;;;;2.40;2.20;;;;;;;;;;5054658;28;20225;-83
2021/07/09 14:56:11;;;;;;;3.53;2.60;;;;;;;;;;5054704;28;20206;-83
2021/07/09 14:58:38;;;;;;;3.10;2.90;;;;;;;;;;5054259;28;20198;-82